Time;durP1;ratioP1;P1;durP2;ratioP2;P2;SDS_P1;SDS_P2;PMS_P1;PMS_P2;Temp;Humidity;BMP_temperature;BMP_pressure;BME280_temperature;BME280_humidity;BME280_pressure;Samples;Min_cycle;Max_cycle;Signal;HPM_P1;HPM_P2
2023/06/29 00:00:05;;;;;;;27.40;16.47;;;20.00;99.90;;;;;;5084983;28;20645;-61
2023/06/29 00:02:34;;;;;;;24.20;15.47;;;20.00;99.90;;;;;;5084174;28;20230;-60
2023/06/29 00:05:02;;;;;;;24.43;16.13;;;19.90;99.90;;;;;;5084459;28;20689;-61
2023/06/29 00:07:33;;;;;;;29.20;16.23;;;19.80;99.90;;;;;;5087541;28;20222;-60
2023/06/29 00:10:03;;;;;;;29.93;17.37;;;19.80;99.90;;;;;;5086870;28;20223;-60
2023/06/29 00:12:32;;;;;;;27.97;15.83;;;19.80;99.90;;;;;;5089297;28;20188;-60
2023/06/29 00:15:00;;;;;;;26.17;16.47;;;19.70;99.90;;;;;;5090536;28;20191;-60
2023/06/29 00:17:28;;;;;;;26.70;16.27;;;19.70;99.90;;;;;;5090075;28;20250;-61
2023/06/29 00:19:58;;;;;;;26.13;16.47;;;19.70;99.90;;;;;;5087995;28;20211;-61
2023/06/29 00:22:26;;;;;;;29.70;17.30;;;19.60;99.90;;;;;;5087154;28;22038;-60
2023/06/29 00:24:57;;;;;;;24.27;16.20;;;19.60;99.90;;;;;;5087158;28;20230;-60
2023/06/29 00:27:26;;;;;;;27.57;16.30;;;19.50;99.90;;;;;;5088710;28;20231;-60
2023/06/29 00:29:55;;;;;;;30.07;18.33;;;19.50;99.90;;;;;;5089797;28;20238;-60
2023/06/29 00:32:23;;;;;;;27.97;17.10;;;19.50;99.90;;;;;;5092943;28;20229;-60
2023/06/29 00:34:51;;;;;;;27.33;17.87;;;19.40;99.90;;;;;;5092656;28;20586;-60
2023/06/29 00:37:19;;;;;;;29.37;17.57;;;19.40;99.90;;;;;;5094057;28;20218;-61
2023/06/29 00:39:48;;;;;;;25.93;17.10;;;19.40;99.90;;;;;;5092789;28;20230;-60
2023/06/29 00:42:16;;;;;;;29.27;17.57;;;19.40;99.90;;;;;;5093479;28;20290;-60
2023/06/29 00:44:46;;;;;;;32.20;18.07;;;19.40;99.90;;;;;;5094608;28;20302;-61
2023/06/29 00:47:15;;;;;;;30.33;18.27;;;19.30;99.90;;;;;;5075970;28;20219;-61
2023/06/29 00:49:43;;;;;;;27.27;17.07;;;19.30;99.90;;;;;;5093222;28;20306;-60
2023/06/29 00:52:12;;;;;;;30.93;17.43;;;19.30;99.90;;;;;;5093732;28;20219;-60
2023/06/29 00:54:40;;;;;;;29.97;17.73;;;19.30;99.90;;;;;;5082555;28;20219;-60
2023/06/29 00:57:08;;;;;;;27.83;17.60;;;19.30;99.90;;;;;;5093836;28;20645;-61
2023/06/29 00:59:37;;;;;;;30.57;19.10;;;19.30;99.90;;;;;;5080894;28;20211;-60
2023/06/29 01:02:08;;;;;;;31.27;18.70;;;19.30;99.90;;;;;;5094008;28;20215;-60
2023/06/29 01:04:36;;;;;;;30.03;18.40;;;19.30;99.90;;;;;;5087384;28;20219;-60
2023/06/29 01:07:10;;;;;;;28.37;18.20;;;19.30;99.90;;;;;;5094214;28;20219;-61
2023/06/29 01:09:39;;;;;;;32.27;19.53;;;19.30;99.90;;;;;;5091134;28;20227;-61
2023/06/29 01:12:09;;;;;;;33.70;19.53;;;19.30;99.90;;;;;;5092114;28;20197;-60
2023/06/29 01:14:40;;;;;;;30.13;20.10;;;19.20;99.90;;;;;;5073956;28;20215;-61
2023/06/29 01:17:14;;;;;;;33.07;19.87;;;19.30;99.90;;;;;;5092954;28;20228;-60
2023/06/29 01:19:46;;;;;;;33.70;20.13;;;19.20;99.90;;;;;;5084564;28;20712;-60
2023/06/29 01:22:20;;;;;;;33.97;19.83;;;19.20;99.90;;;;;;5087603;28;20238;-60
2023/06/29 01:24:50;;;;;;;31.90;20.13;;;19.20;99.90;;;;;;5090734;28;20223;-61
2023/06/29 01:27:20;;;;;;;31.97;19.67;;;19.10;99.90;;;;;;5087682;28;20192;-61
2023/06/29 01:29:55;;;;;;;32.40;20.60;;;19.10;99.90;;;;;;5092552;28;20550;-60
2023/06/29 01:32:26;;;;;;;32.63;20.17;;;19.10;99.90;;;;;;5091588;28;20219;-61
2023/06/29 01:34:54;;;;;;;33.97;19.70;;;19.10;99.90;;;;;;5090388;28;20219;-60
2023/06/29 01:37:26;;;;;;;32.27;19.43;;;19.10;99.90;;;;;;5088114;28;20232;-60
2023/06/29 01:40:01;;;;;;;34.23;20.07;;;19.00;99.90;;;;;;5086016;28;20217;-60
2023/06/29 01:42:32;;;;;;;36.10;20.93;;;19.00;99.90;;;;;;5092164;28;20623;-60
2023/06/29 01:45:01;;;;;;;40.47;20.70;;;19.00;99.90;;;;;;5088727;28;20219;-60
2023/06/29 01:47:30;;;;;;;33.93;20.53;;;19.00;99.90;;;;;;5086595;28;20230;-60
2023/06/29 01:49:59;;;;;;;36.77;20.63;;;19.00;99.90;;;;;;5088308;28;20215;-60
2023/06/29 01:52:28;;;;;;;36.73;21.70;;;19.00;99.90;;;;;;5092524;28;20226;-60
2023/06/29 01:54:58;;;;;;;35.33;21.47;;;19.00;99.90;;;;;;5087529;28;20226;-60
2023/06/29 01:57:26;;;;;;;37.77;20.77;;;19.00;99.90;;;;;;5092032;28;20206;-60
2023/06/29 01:59:54;;;;;;;36.77;21.47;;;19.00;99.90;;;;;;5087970;28;20187;-60
2023/06/29 02:02:23;;;;;;;42.13;22.13;;;19.00;99.90;;;;;;5089169;28;20219;-61
2023/06/29 02:04:51;;;;;;;33.30;20.57;;;19.00;99.90;;;;;;5088296;28;20585;-61
2023/06/29 02:07:19;;;;;;;38.60;21.27;;;19.10;99.90;;;;;;5089967;28;20692;-60
2023/06/29 02:09:48;;;;;;;38.20;22.17;;;19.10;99.90;;;;;;5082496;28;20347;-61
2023/06/29 02:12:18;;;;;;;36.83;21.00;;;19.10;99.90;;;;;;5092253;28;20845;-60
2023/06/29 02:14:46;;;;;;;36.87;20.47;;;19.10;99.90;;;;;;5084853;28;20286;-60
2023/06/29 02:17:17;;;;;;;32.70;21.20;;;19.10;99.90;;;;;;5090162;28;20219;-60
2023/06/29 02:19:46;;;;;;;34.53;20.57;;;19.10;99.90;;;;;;5089848;28;20212;-61
2023/06/29 02:22:14;;;;;;;34.17;21.20;;;19.10;99.90;;;;;;5091756;28;20604;-60
2023/06/29 02:24:42;;;;;;;36.47;21.23;;;19.10;99.90;;;;;;5089571;28;20219;-61
2023/06/29 02:27:10;;;;;;;35.60;20.57;;;19.10;99.90;;;;;;5091509;28;20269;-61
2023/06/29 02:29:40;;;;;;;37.70;21.80;;;19.10;99.90;;;;;;5089732;28;20581;-60
2023/06/29 02:32:09;;;;;;;39.07;22.23;;;19.00;99.90;;;;;;5070513;28;20215;-61
2023/06/29 02:34:37;;;;;;;32.23;20.80;;;19.00;99.90;;;;;;5091365;28;20219;-61
2023/06/29 02:37:05;;;;;;;34.57;20.97;;;19.00;99.90;;;;;;5090007;28;20572;-60
2023/06/29 02:39:34;;;;;;;39.20;22.60;;;19.00;99.90;;;;;;5088712;28;20219;-61
2023/06/29 02:42:03;;;;;;;35.57;20.70;;;19.00;99.90;;;;;;5068998;28;20202;-61
2023/06/29 02:44:31;;;;;;;40.03;21.93;;;19.00;99.90;;;;;;5091257;28;20678;-61
2023/06/29 02:47:01;;;;;;;35.93;21.67;;;19.00;99.90;;;;;;5090813;28;20215;-61
2023/06/29 02:49:29;;;;;;;38.20;21.90;;;19.00;99.90;;;;;;5091056;28;20219;-61
2023/06/29 02:51:57;;;;;;;36.37;20.80;;;19.00;99.90;;;;;;5073567;28;20211;-61
2023/06/29 02:54:26;;;;;;;35.23;20.07;;;19.00;99.90;;;;;;5088511;28;20234;-61
2023/06/29 02:56:54;;;;;;;36.47;21.47;;;19.00;99.90;;;;;;5091350;28;20649;-61
2023/06/29 02:59:22;;;;;;;36.90;21.47;;;18.90;99.90;;;;;;5086366;28;20234;-60
2023/06/29 03:01:50;;;;;;;35.23;20.87;;;18.90;99.90;;;;;;5076265;28;20214;-61
2023/06/29 03:04:20;;;;;;;35.53;21.40;;;18.90;99.90;;;;;;5085987;28;20210;-60
2023/06/29 03:06:48;;;;;;;38.60;21.83;;;18.80;99.90;;;;;;5088951;28;20211;-61
2023/06/29 03:09:16;;;;;;;38.80;22.30;;;18.80;99.90;;;;;;5086554;28;20194;-60
2023/06/29 03:11:45;;;;;;;36.40;20.90;;;18.80;99.90;;;;;;5091291;28;20218;-61
2023/06/29 03:14:13;;;;;;;36.87;22.43;;;18.80;99.90;;;;;;5091205;28;20219;-61
2023/06/29 03:16:42;;;;;;;38.40;21.80;;;18.70;99.90;;;;;;5090918;28;20245;-60
2023/06/29 03:19:10;;;;;;;33.20;20.17;;;18.70;99.90;;;;;;5085121;28;20233;-60
2023/06/29 03:21:40;;;;;;;35.50;21.07;;;18.70;99.90;;;;;;5087340;28;20892;-60
2023/06/29 03:24:08;;;;;;;35.63;21.47;;;18.70;99.90;;;;;;5086901;28;20191;-60
2023/06/29 03:26:36;;;;;;;38.83;22.07;;;18.70;99.90;;;;;;5086718;28;20244;-61
2023/06/29 03:29:04;;;;;;;37.07;21.23;;;18.70;99.90;;;;;;5090208;28;20219;-60
2023/06/29 03:31:33;;;;;;;40.10;23.33;;;18.70;99.90;;;;;;5083270;28;20228;-61
2023/06/29 03:34:01;;;;;;;36.50;21.93;;;18.80;99.90;;;;;;5085328;28;20685;-60
2023/06/29 03:36:30;;;;;;;39.50;23.10;;;18.80;99.90;;;;;;5086885;28;20183;-60
2023/06/29 03:38:59;;;;;;;40.43;22.57;;;18.80;99.90;;;;;;5091130;28;20195;-61
2023/06/29 03:41:28;;;;;;;39.67;22.73;;;18.70;99.90;;;;;;5086242;28;20704;-61
2023/06/29 03:43:56;;;;;;;37.03;22.47;;;18.70;99.90;;;;;;5087446;28;20673;-61
2023/06/29 03:46:25;;;;;;;39.20;22.53;;;18.70;99.90;;;;;;5095853;28;20230;-61
2023/06/29 03:48:53;;;;;;;40.63;23.63;;;18.70;99.90;;;;;;5090091;28;20219;-61
2023/06/29 03:51:22;;;;;;;37.47;22.83;;;18.70;99.90;;;;;;5084985;28;20249;-61
2023/06/29 03:53:50;;;;;;;41.17;23.73;;;18.70;99.90;;;;;;5091717;28;20301;-60
2023/06/29 03:56:20;;;;;;;46.33;24.00;;;18.70;99.90;;;;;;5086874;28;20744;-61
2023/06/29 03:58:48;;;;;;;40.47;23.07;;;18.70;99.90;;;;;;5089263;28;20227;-60
2023/06/29 04:01:16;;;;;;;47.43;23.47;;;18.80;99.90;;;;;;5087998;28;20222;-60
2023/06/29 04:03:45;;;;;;;41.30;24.03;;;18.80;99.90;;;;;;5087770;28;20222;-62
2023/06/29 04:06:14;;;;;;;38.17;22.63;;;18.80;99.90;;;;;;5088596;28;20195;-60
2023/06/29 04:08:42;;;;;;;42.93;24.10;;;18.80;99.90;;;;;;5093938;28;20209;-60
2023/06/29 04:11:12;;;;;;;43.97;24.43;;;18.80;99.90;;;;;;5089688;28;20219;-61
2023/06/29 04:13:41;;;;;;;39.40;23.90;;;18.80;99.90;;;;;;5084457;28;20298;-61
2023/06/29 04:16:10;;;;;;;42.37;23.67;;;18.70;99.90;;;;;;5087955;28;20215;-61
2023/06/29 04:18:38;;;;;;;43.07;23.87;;;18.80;99.90;;;;;;5094322;28;20243;-61
2023/06/29 04:21:06;;;;;;;42.70;24.23;;;18.70;99.90;;;;;;5093751;28;20184;-61
2023/06/29 04:23:34;;;;;;;40.17;23.33;;;18.80;99.90;;;;;;5090817;28;20211;-60
2023/06/29 04:26:03;;;;;;;42.70;23.97;;;18.80;99.90;;;;;;5091334;28;20272;-61
2023/06/29 04:28:35;;;;;;;42.27;23.70;;;18.80;99.90;;;;;;5093916;28;20267;-61
2023/06/29 04:31:05;;;;;;;40.63;24.40;;;18.80;99.90;;;;;;5086023;28;20230;-61
2023/06/29 04:33:33;;;;;;;39.07;22.90;;;18.80;99.90;;;;;;5094249;28;20287;-60
2023/06/29 04:36:02;;;;;;;39.37;22.97;;;18.80;99.90;;;;;;5094084;28;20622;-60
2023/06/29 04:38:31;;;;;;;38.93;23.40;;;18.80;99.90;;;;;;5094279;28;20569;-61
2023/06/29 04:41:04;;;;;;;41.27;23.33;;;18.90;99.90;;;;;;5081856;28;20298;-61
2023/06/29 04:43:32;;;;;;;37.00;22.10;;;18.90;99.90;;;;;;5092213;28;20231;-61
2023/06/29 04:46:01;;;;;;;40.57;22.87;;;19.00;99.90;;;;;;5093835;28;20227;-61
2023/06/29 04:48:36;;;;;;;39.90;22.57;;;19.00;99.90;;;;;;5094066;28;20194;-60
2023/06/29 04:51:06;;;;;;;39.77;23.37;;;19.00;99.90;;;;;;5092760;28;20203;-61
2023/06/29 04:53:36;;;;;;;37.53;22.93;;;19.00;99.90;;;;;;5093990;28;20223;-61
2023/06/29 04:56:04;;;;;;;40.53;22.70;;;19.00;99.90;;;;;;5090098;28;20348;-60
2023/06/29 04:58:34;;;;;;;35.70;21.97;;;19.00;99.90;;;;;;5087435;28;20627;-61
2023/06/29 05:01:03;;;;;;;39.80;22.63;;;19.00;99.90;;;;;;5089584;28;20298;-61
2023/06/29 05:03:34;;;;;;;36.93;22.30;;;19.10;99.90;;;;;;5093218;28;20180;-61
2023/06/29 05:06:03;;;;;;;37.00;21.83;;;19.10;99.90;;;;;;5093702;28;20609;-60
2023/06/29 05:08:31;;;;;;;39.03;21.60;;;19.10;99.90;;;;;;5091816;28;20231;-61
2023/06/29 05:11:00;;;;;;;38.97;22.33;;;19.10;99.90;;;;;;5085062;28;20212;-61
2023/06/29 05:13:28;;;;;;;36.23;22.27;;;19.10;99.90;;;;;;5093944;28;20215;-61
2023/06/29 05:15:56;;;;;;;35.90;21.37;;;19.20;99.90;;;;;;5087812;28;20225;-61
2023/06/29 05:18:24;;;;;;;35.83;21.27;;;19.30;99.90;;;;;;5091727;28;20634;-61
2023/06/29 05:20:54;;;;;;;36.17;22.40;;;19.30;99.90;;;;;;5092505;28;20194;-61
2023/06/29 05:23:22;;;;;;;39.90;22.97;;;19.30;99.90;;;;;;5091405;28;20689;-61
2023/06/29 05:25:51;;;;;;;38.00;22.30;;;19.30;99.90;;;;;;5088876;28;20222;-61
2023/06/29 05:28:19;;;;;;;38.13;22.20;;;19.30;99.90;;;;;;5085953;28;20585;-60
2023/06/29 05:30:47;;;;;;;40.33;23.20;;;19.30;99.90;;;;;;5090153;28;20215;-61
2023/06/29 05:33:18;;;;;;;37.97;22.00;;;19.40;99.90;;;;;;5090886;28;20211;-61
2023/06/29 05:35:46;;;;;;;39.90;22.50;;;19.40;99.90;;;;;;5091259;28;20206;-61
2023/06/29 05:38:16;;;;;;;40.13;22.60;;;19.40;99.90;;;;;;5089042;28;20211;-61
2023/06/29 05:40:44;;;;;;;38.50;22.37;;;19.40;99.90;;;;;;5087011;28;20216;-61
2023/06/29 05:43:13;;;;;;;39.07;22.03;;;19.40;99.90;;;;;;5090523;28;20645;-61
2023/06/29 05:45:41;;;;;;;42.93;22.50;;;19.40;99.90;;;;;;5092082;28;20218;-61
2023/06/29 05:48:09;;;;;;;37.03;21.77;;;19.40;99.90;;;;;;5091380;28;20187;-61
2023/06/29 05:50:38;;;;;;;36.67;21.70;;;19.50;99.90;;;;;;5090301;28;20302;-60
2023/06/29 05:53:06;;;;;;;37.37;22.23;;;19.50;99.90;;;;;;5090970;28;20984;-61
2023/06/29 05:55:36;;;;;;;35.03;21.53;;;19.50;99.90;;;;;;5090504;28;20226;-61
2023/06/29 05:58:04;;;;;;;43.27;23.17;;;19.50;99.90;;;;;;5090052;28;20230;-61
2023/06/29 06:00:32;;;;;;;37.57;22.40;;;19.50;99.90;;;;;;5090268;28;20195;-61
2023/06/29 06:03:00;;;;;;;38.53;22.57;;;19.50;99.90;;;;;;5088117;28;20806;-61
2023/06/29 06:05:29;;;;;;;38.03;22.43;;;19.50;99.90;;;;;;5092146;28;20262;-61
2023/06/29 06:07:57;;;;;;;37.00;21.20;;;19.50;99.90;;;;;;5090681;28;20217;-61
2023/06/29 06:10:26;;;;;;;37.60;21.77;;;19.50;99.90;;;;;;5087625;28;20226;-61
2023/06/29 06:12:55;;;;;;;38.53;22.03;;;19.50;99.90;;;;;;5088721;28;20685;-61
2023/06/29 06:15:23;;;;;;;37.97;22.30;;;19.50;99.90;;;;;;5072257;28;20199;-60
2023/06/29 06:17:52;;;;;;;43.17;23.63;;;19.50;99.90;;;;;;5093105;28;20689;-61
2023/06/29 06:20:20;;;;;;;36.40;21.87;;;19.50;99.90;;;;;;5092140;28;20222;-61
2023/06/29 06:22:49;;;;;;;40.03;23.17;;;19.50;99.90;;;;;;5088979;28;20218;-61
2023/06/29 06:25:17;;;;;;;36.43;21.83;;;19.60;99.90;;;;;;5091485;28;20833;-61
2023/06/29 06:27:49;;;;;;;38.53;21.63;;;19.60;99.90;;;;;;5084293;28;21020;-61
2023/06/29 06:30:19;;;;;;;37.00;22.63;;;19.60;99.90;;;;;;5089086;28;20195;-60
2023/06/29 06:32:49;;;;;;;35.03;21.73;;;19.70;99.90;;;;;;5092227;28;20539;-61
2023/06/29 06:35:18;;;;;;;40.27;22.63;;;19.70;99.90;;;;;;5086133;28;20238;-61
2023/06/29 06:37:46;;;;;;;37.93;22.03;;;19.70;99.90;;;;;;5089914;28;20225;-60
2023/06/29 06:40:16;;;;;;;41.27;22.57;;;19.80;99.90;;;;;;5091676;28;20215;-60
2023/06/29 06:42:44;;;;;;;39.87;22.73;;;19.80;99.90;;;;;;5073255;28;20230;-60
2023/06/29 06:45:13;;;;;;;40.47;23.60;;;19.90;99.90;;;;;;5091388;28;20753;-60
2023/06/29 06:47:43;;;;;;;42.00;22.37;;;19.90;99.90;;;;;;5087282;28;20254;-60
2023/06/29 06:50:11;;;;;;;38.40;22.47;;;19.90;99.90;;;;;;5088228;28;20596;-61
2023/06/29 06:52:40;;;;;;;35.80;22.40;;;20.00;99.90;;;;;;5086835;28;20215;-60
2023/06/29 06:55:09;;;;;;;38.90;22.67;;;19.90;99.90;;;;;;5064335;28;20223;-61
2023/06/29 06:57:37;;;;;;;40.37;23.87;;;20.00;99.90;;;;;;5084651;28;20223;-61
2023/06/29 07:00:10;;;;;;;41.17;23.70;;;20.00;99.90;;;;;;5083036;28;20191;-61
2023/06/29 07:02:39;;;;;;;44.43;24.53;;;20.00;99.90;;;;;;5088825;28;20815;-61
2023/06/29 07:05:10;;;;;;;36.47;22.90;;;20.10;99.90;;;;;;5088529;28;20219;-60
2023/06/29 07:07:38;;;;;;;39.70;23.27;;;20.10;99.90;;;;;;5088790;28;20241;-60
2023/06/29 07:10:07;;;;;;;41.47;23.30;;;20.20;99.90;;;;;;5090322;28;20283;-60
2023/06/29 07:12:36;;;;;;;39.40;23.40;;;20.20;99.90;;;;;;5089629;28;20725;-61
2023/06/29 07:15:06;;;;;;;39.67;23.13;;;20.30;99.90;;;;;;5089264;28;20282;-61
2023/06/29 07:17:34;;;;;;;42.07;22.93;;;20.30;99.90;;;;;;5086693;28;20590;-61
2023/06/29 07:20:03;;;;;;;41.97;22.63;;;20.40;99.90;;;;;;5069990;28;20219;-61
2023/06/29 07:22:36;;;;;;;37.47;23.57;;;20.40;99.90;;;;;;5087542;28;20215;-60
2023/06/29 07:25:11;;;;;;;37.50;22.60;;;20.50;99.90;;;;;;5087314;28;20211;-60
2023/06/29 07:27:39;;;;;;;41.67;22.53;;;20.50;99.90;;;;;;5091328;28;20302;-61
2023/06/29 07:30:08;;;;;;;38.63;22.57;;;20.50;99.90;;;;;;5090325;28;20285;-60
2023/06/29 07:32:37;;;;;;;36.73;22.03;;;20.50;99.90;;;;;;5087711;28;20298;-61
2023/06/29 07:35:06;;;;;;;36.70;22.73;;;20.50;99.90;;;;;;5088519;28;20219;-60
2023/06/29 07:37:35;;;;;;;40.33;22.30;;;20.50;99.90;;;;;;5082955;28;20708;-60
2023/06/29 07:40:05;;;;;;;38.17;22.77;;;20.60;99.90;;;;;;5065144;28;20219;-61
2023/06/29 07:42:33;;;;;;;35.80;22.90;;;20.60;99.90;;;;;;5085775;28;20545;-61
2023/06/29 07:45:08;;;;;;;47.50;24.47;;;20.60;99.90;;;;;;5085363;28;20215;-61
2023/06/29 07:47:36;;;;;;;40.30;22.73;;;20.70;99.90;;;;;;5089595;28;20219;-61
2023/06/29 07:50:06;;;;;;;38.43;23.03;;;20.80;99.90;;;;;;5087469;28;20211;-61
2023/06/29 07:52:36;;;;;;;37.67;23.23;;;20.90;99.90;;;;;;5087188;28;20242;-60
2023/06/29 07:55:05;;;;;;;38.60;23.27;;;20.90;99.90;;;;;;5089541;28;20215;-61
2023/06/29 07:57:35;;;;;;;40.17;22.97;;;21.20;99.90;;;;;;5082103;28;20190;-61
2023/06/29 08:00:09;;;;;;;43.17;23.30;;;21.20;99.90;;;;;;5079718;28;20207;-61
2023/06/29 08:02:37;;;;;;;42.83;24.20;;;21.20;99.90;;;;;;5075681;28;20307;-61
2023/06/29 08:05:07;;;;;;;43.60;24.40;;;21.40;99.90;;;;;;5078523;28;20292;-61
2023/06/29 08:07:40;;;;;;;44.30;23.03;;;21.50;99.90;;;;;;5084931;28;20217;-61
2023/06/29 08:10:09;;;;;;;41.13;24.20;;;21.50;99.90;;;;;;5082514;28;20735;-60
2023/06/29 08:12:37;;;;;;;42.37;24.40;;;21.70;99.90;;;;;;5084389;28;20223;-61
2023/06/29 08:15:06;;;;;;;41.50;24.30;;;21.70;99.90;;;;;;5086556;28;20219;-61
2023/06/29 08:17:35;;;;;;;40.80;24.90;;;21.70;99.90;;;;;;5080076;28;20812;-61
2023/06/29 08:20:09;;;;;;;44.60;24.97;;;21.80;99.90;;;;;;5086288;28;20219;-61
2023/06/29 08:22:37;;;;;;;44.13;24.70;;;21.80;99.90;;;;;;5084940;28;20698;-61
2023/06/29 08:25:08;;;;;;;43.17;25.33;;;22.00;99.90;;;;;;5087124;28;20733;-61
2023/06/29 08:27:36;;;;;;;45.57;25.30;;;22.00;99.90;;;;;;5086663;28;20224;-61
2023/06/29 08:30:05;;;;;;;41.97;25.07;;;22.10;99.90;;;;;;5085455;28;20188;-61
2023/06/29 08:32:33;;;;;;;44.00;26.33;;;22.20;99.90;;;;;;5073377;28;20307;-61
2023/06/29 08:35:02;;;;;;;42.33;25.83;;;22.30;99.90;;;;;;5083459;28;20217;-61
2023/06/29 08:37:31;;;;;;;45.03;25.97;;;22.50;99.90;;;;;;5086003;28;20303;-61
2023/06/29 08:39:59;;;;;;;42.77;25.67;;;22.50;99.90;;;;;;5081155;28;20221;-61
2023/06/29 08:42:29;;;;;;;43.03;25.70;;;22.60;99.90;;;;;;5079567;28;20205;-61
2023/06/29 08:44:57;;;;;;;45.33;26.70;;;22.60;99.90;;;;;;5084351;28;20205;-61
2023/06/29 08:47:28;;;;;;;45.50;26.13;;;22.60;99.90;;;;;;5086490;28;20223;-61
2023/06/29 08:49:58;;;;;;;48.03;26.73;;;22.80;99.90;;;;;;5081439;28;20250;-61
2023/06/29 08:52:29;;;;;;;50.77;27.13;;;23.00;99.90;;;;;;5089463;28;20225;-61
2023/06/29 08:54:59;;;;;;;46.10;26.27;;;23.00;99.90;;;;;;5074108;28;20223;-61
2023/06/29 08:57:31;;;;;;;45.00;26.33;;;23.20;99.90;;;;;;5073727;28;20212;-61
2023/06/29 09:00:00;;;;;;;48.87;26.70;;;23.20;99.90;;;;;;5094179;28;20192;-60
2023/06/29 09:02:29;;;;;;;48.00;26.97;;;23.50;99.90;;;;;;5093917;28;20214;-61
2023/06/29 09:04:58;;;;;;;43.23;25.83;;;23.50;99.90;;;;;;5071395;28;20241;-61
2023/06/29 09:07:26;;;;;;;43.90;26.17;;;23.50;99.90;;;;;;5089559;28;20312;-61
2023/06/29 09:09:55;;;;;;;47.90;27.30;;;23.70;99.90;;;;;;5090132;28;20214;-62
2023/06/29 09:12:23;;;;;;;42.93;25.97;;;23.80;99.90;;;;;;5089115;28;20198;-61
2023/06/29 09:14:57;;;;;;;48.67;26.87;;;23.90;99.90;;;;;;5075133;28;20292;-61
2023/06/29 09:17:26;;;;;;;43.77;26.63;;;24.00;99.90;;;;;;5092244;28;20578;-61
2023/06/29 09:19:56;;;;;;;46.03;26.20;;;24.10;99.90;;;;;;5072207;28;20747;-61
2023/06/29 09:22:28;;;;;;;46.80;28.10;;;24.40;99.90;;;;;;5090518;28;20219;-61
2023/06/29 09:24:58;;;;;;;46.60;26.37;;;24.50;99.90;;;;;;5090977;28;20215;-61
2023/06/29 09:27:40;;;;;;;45.17;27.37;;;24.60;99.90;;;;;;5074201;28;20225;-61
2023/06/29 09:30:18;;;;;;;44.70;26.83;;;24.80;99.90;;;;;;5090526;28;20201;-61
2023/06/29 09:32:46;;;;;;;48.77;27.00;;;24.90;99.90;;;;;;5090445;28;20222;-62
2023/06/29 09:35:14;;;;;;;45.43;27.30;;;24.70;99.90;;;;;;5088702;28;20233;-61
2023/06/29 09:37:45;;;;;;;45.80;27.77;;;24.50;99.90;;;;;;5068048;28;20627;-61
2023/06/29 09:40:13;;;;;;;49.33;27.90;;;24.40;99.90;;;;;;5084241;28;20222;-61
2023/06/29 09:42:42;;;;;;;48.50;27.83;;;24.30;99.90;;;;;;5091050;28;20223;-62
2023/06/29 09:45:14;;;;;;;44.90;27.67;;;24.30;99.90;;;;;;5068526;28;20212;-61
2023/06/29 09:47:49;;;;;;;45.57;26.73;;;24.40;99.90;;;;;;5088915;28;20738;-62
2023/06/29 09:50:21;;;;;;;47.17;27.70;;;24.40;99.90;;;;;;5090183;28;20219;-61
2023/06/29 09:52:52;;;;;;;45.30;27.73;;;24.40;99.90;;;;;;5088475;28;20221;-61
2023/06/29 09:55:30;;;;;;;43.70;26.23;;;24.30;99.90;;;;;;5091730;28;20235;-62
2023/06/29 09:58:01;;;;;;;45.07;26.87;;;24.10;99.90;;;;;;5086576;28;20314;-61
2023/06/29 10:00:32;;;;;;;47.40;27.23;;;24.10;99.90;;;;;;5081876;28;20210;-61
2023/06/29 10:03:01;;;;;;;47.57;26.27;;;24.00;99.90;;;;;;5090860;28;20206;-61
2023/06/29 10:05:31;;;;;;;48.03;27.50;;;24.00;99.90;;;;;;5084938;28;20211;-61
2023/06/29 10:08:04;;;;;;;50.93;28.60;;;24.00;99.90;;;;;;5090933;28;20294;-61
2023/06/29 10:10:36;;;;;;;46.47;26.87;;;24.00;99.90;;;;;;5090441;28;20211;-60
2023/06/29 10:13:07;;;;;;;46.37;26.60;;;24.00;99.90;;;;;;5087088;28;20218;-61
2023/06/29 10:15:38;;;;;;;47.87;28.20;;;24.20;99.90;;;;;;5085524;28;20231;-62
2023/06/29 10:18:11;;;;;;;51.07;28.73;;;24.50;99.90;;;;;;5088770;28;20196;-61
2023/06/29 10:20:43;;;;;;;43.90;27.90;;;24.60;99.90;;;;;;5068228;28;20220;-62
2023/06/29 10:23:15;;;;;;;50.33;29.07;;;24.50;99.90;;;;;;5067945;28;20211;-61
2023/06/29 10:25:48;;;;;;;51.20;28.33;;;24.50;99.90;;;;;;5089241;28;20271;-62
2023/06/29 10:28:18;;;;;;;46.70;28.10;;;24.50;99.90;;;;;;5087832;28;20218;-62
2023/06/29 10:30:50;;;;;;;47.30;27.50;;;24.50;99.90;;;;;;5088069;28;20223;-61
2023/06/29 10:33:23;;;;;;;48.60;28.67;;;24.40;99.90;;;;;;5088229;28;20188;-61
2023/06/29 10:35:57;;;;;;;47.10;28.93;;;24.30;99.90;;;;;;5088441;28;20215;-61
2023/06/29 10:38:31;;;;;;;50.30;29.50;;;24.20;99.90;;;;;;5084640;28;20229;-61
2023/06/29 10:40:59;;;;;;;51.97;30.13;;;24.20;99.90;;;;;;5081753;28;20613;-62
2023/06/29 10:43:28;;;;;;;54.00;29.30;;;24.20;99.90;;;;;;5068168;28;20242;-61
2023/06/29 10:46:00;;;;;;;49.27;28.77;;;24.30;99.90;;;;;;5085237;28;20582;-61
2023/06/29 10:48:29;;;;;;;51.20;29.47;;;24.30;99.90;;;;;;5080042;28;20192;-61
2023/06/29 10:51:15;;;;;;;48.87;29.30;;;24.30;99.90;;;;;;5084453;28;20703;-62
2023/06/29 10:53:47;;;;;;;52.70;29.97;;;24.40;99.90;;;;;;5084289;28;20223;-62
2023/06/29 10:56:29;;;;;;;53.80;29.17;;;24.20;99.90;;;;;;5083076;28;20325;-61
2023/06/29 10:58:59;;;;;;;53.47;30.67;;;24.20;99.90;;;;;;5076218;28;20230;-61
2023/06/29 11:01:29;;;;;;;52.80;30.13;;;24.20;99.90;;;;;;5082268;28;20219;-61
2023/06/29 11:04:00;;;;;;;51.30;30.00;;;24.10;99.90;;;;;;5086505;28;20231;-61
2023/06/29 11:06:35;;;;;;;49.87;28.90;;;24.10;99.90;;;;;;5085152;28;20314;-62
2023/06/29 11:09:12;;;;;;;51.70;30.40;;;24.10;99.90;;;;;;5065558;28;20215;-61
2023/06/29 11:11:40;;;;;;;50.47;29.17;;;24.20;99.90;;;;;;5059610;28;20651;-61
2023/06/29 11:14:11;;;;;;;47.53;29.93;;;24.50;99.90;;;;;;5080920;28;20227;-62
2023/06/29 11:16:41;;;;;;;53.37;30.90;;;24.80;99.90;;;;;;5077627;28;20226;-61
2023/06/29 11:19:11;;;;;;;53.93;29.33;;;25.00;99.90;;;;;;5078154;28;20230;-61
2023/06/29 11:21:41;;;;;;;52.27;29.87;;;25.10;99.90;;;;;;5081665;28;20234;-61
2023/06/29 11:24:10;;;;;;;55.03;29.67;;;25.20;99.90;;;;;;5084669;28;20244;-61
2023/06/29 11:26:38;;;;;;;54.27;30.13;;;25.20;99.90;;;;;;5084350;28;20222;-61
2023/06/29 11:29:08;;;;;;;48.87;29.70;;;25.20;99.90;;;;;;5082774;28;20212;-62
2023/06/29 11:31:36;;;;;;;49.13;29.67;;;25.20;99.90;;;;;;5080104;28;20221;-61
2023/06/29 11:34:06;;;;;;;50.73;29.73;;;25.20;99.90;;;;;;5086216;28;20222;-61
2023/06/29 11:36:36;;;;;;;51.13;29.53;;;25.20;99.90;;;;;;5061023;28;20233;-62
2023/06/29 11:39:12;;;;;;;54.53;30.03;;;25.20;99.90;;;;;;5087983;28;20199;-62
2023/06/29 11:41:42;;;;;;;45.77;28.00;;;25.10;99.90;;;;;;5080491;28;20221;-61
2023/06/29 11:44:10;;;;;;;45.53;26.67;;;25.10;99.90;;;;;;5088628;28;20223;-61
2023/06/29 11:46:44;;;;;;;48.10;27.93;;;24.90;99.90;;;;;;5081986;28;21444;-61
2023/06/29 11:49:19;;;;;;;46.53;26.50;;;24.80;99.90;;;;;;5083515;28;20581;-61
2023/06/29 11:52:09;;;;;;;47.77;26.40;;;24.60;99.90;;;;;;5085557;28;20282;-61
2023/06/29 11:54:38;;;;;;;44.23;26.60;;;24.50;99.90;;;;;;5084944;28;20222;-61
2023/06/29 11:57:07;;;;;;;46.03;27.50;;;24.40;99.90;;;;;;5088092;28;20179;-61
2023/06/29 11:59:39;;;;;;;51.17;26.60;;;24.40;99.90;;;;;;5087420;28;20656;-61
2023/06/29 12:02:08;;;;;;;45.73;27.57;;;24.40;99.90;;;;;;5089127;28;20242;-61
2023/06/29 12:04:38;;;;;;;44.03;26.30;;;24.50;99.90;;;;;;5086952;28;20214;-61
2023/06/29 12:07:07;;;;;;;48.03;27.60;;;24.60;99.90;;;;;;5090502;28;20221;-61
2023/06/29 12:09:38;;;;;;;45.03;26.60;;;24.70;99.90;;;;;;5090755;28;20694;-60
2023/06/29 12:12:07;;;;;;;46.40;26.57;;;24.60;99.90;;;;;;5085085;28;20192;-61
2023/06/29 12:14:36;;;;;;;49.60;28.37;;;24.40;99.90;;;;;;5087573;28;20218;-61
2023/06/29 12:17:04;;;;;;;43.53;26.33;;;24.30;99.90;;;;;;5088403;28;20268;-60
2023/06/29 12:19:38;;;;;;;45.90;25.67;;;24.10;99.90;;;;;;5089010;28;20245;-62
2023/06/29 12:22:19;;;;;;;36.77;22.47;;;23.90;99.90;;;;;;5081082;28;20226;-62
2023/06/29 12:24:50;;;;;;;36.50;22.87;;;23.60;99.90;;;;;;5078674;28;20212;-61
2023/06/29 12:27:20;;;;;;;35.00;20.73;;;23.30;99.90;;;;;;5088673;28;20668;-61
2023/06/29 12:29:48;;;;;;;31.67;19.40;;;23.30;99.90;;;;;;5090117;28;20225;-61
2023/06/29 12:32:16;;;;;;;35.60;20.60;;;23.20;99.90;;;;;;5072982;28;20250;-62
2023/06/29 12:34:45;;;;;;;31.07;18.93;;;23.30;99.90;;;;;;5085978;28;20250;-61
2023/06/29 12:37:13;;;;;;;30.13;18.33;;;23.40;99.90;;;;;;5085114;28;20218;-61
2023/06/29 12:39:43;;;;;;;30.10;18.73;;;23.50;99.90;;;;;;5092547;28;20246;-61